createdAt,value
2018-05-02T00:01:56.813Z,100880.39
2018-05-02T00:04:25.146Z,100882.55
2018-05-02T00:06:53.493Z,100878.72
2018-05-02T00:09:21.853Z,100883.83
2018-05-02T00:11:50.172Z,100874.93
2018-05-02T00:14:18.512Z,100870.27
2018-05-02T00:16:46.842Z,100868.18
2018-05-02T00:19:15.181Z,100870.35
2018-05-02T00:21:43.501Z,100869.08
2018-05-02T00:24:11.840Z,100857.61
2018-05-02T00:26:40.161Z,100861.45
2018-05-02T00:29:08.500Z,100860.15
2018-05-02T00:31:36.813Z,100857.61
2018-05-02T00:34:05.236Z,100858.03
2018-05-02T00:36:33.472Z,100861.42
2018-05-02T00:39:01.808Z,100859.31
2018-05-02T00:41:30.132Z,100857.61
2018-05-02T00:43:58.473Z,100855.50
2018-05-02T00:46:26.793Z,100855.06
2018-05-02T00:49:07.049Z,100851.69
2018-05-02T00:51:35.372Z,100852.14
2018-05-02T00:54:03.700Z,100857.27
2018-05-02T00:56:32.008Z,100852.17
2018-05-02T00:59:00.344Z,100853.89
2018-05-02T01:01:28.657Z,100860.64
2018-05-02T01:03:57.000Z,100854.73
2018-05-02T01:06:25.313Z,100852.65
2018-05-02T01:08:53.657Z,100855.60
2018-05-02T01:11:21.972Z,100853.51
2018-05-02T01:13:51.321Z,100859.00
2018-05-02T01:16:19.641Z,100864.52
2018-05-02T01:18:47.981Z,100872.16
2018-05-02T01:21:16.294Z,100871.35
2018-05-02T01:23:44.632Z,100875.19
2018-05-02T01:26:12.948Z,100876.88
2018-05-02T01:28:41.286Z,100876.88
2018-05-02T01:31:09.603Z,100878.59
2018-05-02T01:33:37.938Z,100889.62
2018-05-02T01:36:06.261Z,100892.16
2018-05-02T01:38:34.600Z,100886.66
2018-05-02T01:41:02.917Z,100882.02
2018-05-02T01:43:31.252Z,100885.39
2018-05-02T01:45:59.569Z,100891.75
2018-05-02T01:48:27.904Z,100891.76
2018-05-02T01:50:56.221Z,100885.42
2018-05-02T01:53:24.557Z,100888.37
2018-05-02T01:55:52.868Z,100887.55
2018-05-02T01:58:21.209Z,100882.02
2018-05-02T02:00:49.520Z,100878.64
2018-05-02T02:03:17.861Z,100881.59
2018-05-02T02:05:46.176Z,100880.78
2018-05-02T02:08:14.508Z,100888.39
2018-05-02T02:10:42.828Z,100877.37
2018-05-02T02:13:11.181Z,100874.82
2018-05-02T02:15:39.497Z,100882.88
2018-05-02T02:18:07.876Z,100877.78
2018-05-02T02:20:36.236Z,100883.75
2018-05-02T02:23:04.552Z,100882.45
2018-05-02T02:25:32.948Z,100885.44
2018-05-02T02:28:01.338Z,100882.88
2018-05-02T02:30:29.668Z,100885.83
2018-05-02T02:32:57.985Z,100875.23
2018-05-02T02:35:26.345Z,100878.64
2018-05-02T02:37:54.729Z,100881.19
2018-05-02T02:40:23.058Z,100876.52
2018-05-02T02:42:51.409Z,100875.25
2018-05-02T02:45:19.855Z,100870.58
2018-05-02T02:47:48.176Z,100869.73
2018-05-02T02:50:16.513Z,100865.48
2018-05-02T02:52:44.839Z,100866.35
2018-05-02T02:55:13.220Z,100869.30
2018-05-02T02:57:41.495Z,100871.02
2018-05-02T03:00:09.825Z,100872.29
2018-05-02T03:02:38.140Z,100872.29
2018-05-02T03:05:06.477Z,100865.91
2018-05-02T03:07:34.801Z,100864.66
2018-05-02T03:10:03.136Z,100858.70
2018-05-02T03:12:31.454Z,100857.88
2018-05-02T03:14:59.788Z,100862.10
2018-05-02T03:17:28.101Z,100863.38
2018-05-02T03:19:56.441Z,100854.91
2018-05-02T03:22:24.757Z,100857.87
2018-05-02T03:24:53.104Z,100854.90
2018-05-02T03:27:21.429Z,100855.30
2018-05-02T03:29:49.761Z,100849.81
2018-05-02T03:32:18.078Z,100846.83
2018-05-02T03:34:46.413Z,100850.64
2018-05-02T03:37:14.724Z,100850.66
2018-05-02T03:39:43.784Z,100853.63
2018-05-02T03:42:12.101Z,100853.21
2018-05-02T03:44:40.438Z,100846.84
2018-05-02T03:47:08.748Z,100850.24
2018-05-02T03:49:37.087Z,100851.50
2018-05-02T03:52:05.414Z,100852.37
2018-05-02T03:54:33.748Z,100847.70
2018-05-02T03:57:02.064Z,100852.36
2018-05-02T03:59:42.300Z,100850.66
2018-05-02T04:02:22.308Z,100853.19
2018-05-02T04:05:02.390Z,100851.92
2018-05-02T04:07:30.704Z,100856.19
2018-05-02T04:09:59.046Z,100861.70
2018-05-02T04:12:27.364Z,100861.70
2018-05-02T04:14:55.700Z,100865.08
2018-05-02T04:17:24.049Z,100866.35
2018-05-02T04:19:52.398Z,100863.81
2018-05-02T04:22:20.709Z,100869.72
2018-05-02T04:24:49.044Z,100868.47
2018-05-02T04:27:17.459Z,100871.88
2018-05-02T04:29:45.792Z,100869.73
2018-05-02T04:32:14.122Z,100872.71
2018-05-02T04:34:42.473Z,100868.90
2018-05-02T04:37:10.913Z,100874.84
2018-05-02T04:39:39.296Z,100878.22
2018-05-02T04:42:07.616Z,100880.77
2018-05-02T04:44:35.979Z,100867.60
2018-05-02T04:47:04.306Z,100867.60
2018-05-02T04:49:32.784Z,100867.58
2018-05-02T04:52:01.233Z,100876.03
2018-05-02T04:54:30.260Z,100881.98
2018-05-02T04:56:58.827Z,100881.11
2018-05-02T04:59:27.293Z,100886.16
2018-05-02T05:01:55.989Z,100886.12
2018-05-02T05:04:24.398Z,100893.75
2018-05-02T05:06:52.763Z,100903.50
2018-05-02T05:09:21.108Z,100903.48
2018-05-02T05:11:49.520Z,100901.80
2018-05-02T05:14:18.580Z,100899.22
2018-05-02T05:16:46.946Z,100908.10
2018-05-02T05:19:15.256Z,100905.52
2018-05-02T05:21:43.608Z,100909.75
2018-05-02T05:24:11.997Z,100902.92
2018-05-02T05:26:40.356Z,100899.04
2018-05-02T05:29:08.684Z,100896.41
2018-05-02T05:31:37.040Z,100895.09
2018-05-02T05:34:05.437Z,100898.88
2018-05-02T05:36:33.772Z,100904.75
2018-05-02T05:39:02.109Z,100906.72
2018-05-02T05:41:30.490Z,100903.58
2018-05-02T05:43:58.849Z,100895.77
2018-05-02T05:46:27.204Z,100899.09
2018-05-02T05:48:55.537Z,100897.25
2018-05-02T05:51:23.893Z,100889.41
2018-05-02T05:53:53.203Z,100890.42
2018-05-02T05:56:21.556Z,100892.30
2018-05-02T05:58:49.888Z,100889.30
2018-05-02T06:01:18.250Z,100885.17
2018-05-02T06:03:48.666Z,100896.44
2018-05-02T06:06:17.022Z,100889.39
2018-05-02T06:08:45.383Z,100891.21
2018-05-02T06:11:13.728Z,100895.69
2018-05-02T06:13:42.059Z,100899.59
2018-05-02T06:17:19.424Z,100897.67
2018-05-02T06:19:47.754Z,100898.44
2018-05-02T06:22:16.128Z,100897.82
2018-05-02T06:24:44.461Z,100900.30
2018-05-02T06:27:12.835Z,100898.23
2018-05-02T06:39:11.137Z,100894.83
2018-05-02T06:41:39.484Z,100894.27
2018-05-02T06:44:07.813Z,100896.27
2018-05-02T06:46:36.160Z,100888.96
2018-05-02T06:49:04.505Z,100886.09
2018-05-02T06:51:32.857Z,100893.20
2018-05-02T06:54:01.181Z,100894.69
2018-05-02T06:56:29.533Z,100894.33
2018-05-02T06:58:57.864Z,100892.72
2018-05-02T07:01:26.216Z,100891.29
2018-05-02T07:03:54.544Z,100886.88
2018-05-02T07:06:22.891Z,100887.14
2018-05-02T07:08:51.777Z,100886.30
2018-05-02T07:11:21.816Z,100885.23
2018-05-02T07:13:51.811Z,100878.28
2018-05-02T07:16:20.161Z,100872.23
2018-05-02T07:18:48.485Z,100868.39
2018-05-02T07:21:16.837Z,100873.38
2018-05-02T07:23:45.160Z,100871.19
2018-05-02T07:26:13.511Z,100874.57
2018-05-02T07:28:41.849Z,100873.68
2018-05-02T07:31:10.200Z,100878.38
2018-05-02T07:33:39.584Z,100874.81
2018-05-02T07:36:07.940Z,100880.54
2018-05-02T07:38:36.259Z,100882.47
2018-05-02T07:41:04.588Z,100881.33
2018-05-02T07:43:32.944Z,100881.18
2018-05-02T07:46:01.277Z,100878.75
2018-05-02T07:48:29.622Z,100883.63
2018-05-02T07:50:57.959Z,100883.83
2018-05-02T07:53:26.430Z,100881.59
2018-05-02T07:55:54.752Z,100875.44
2018-05-02T07:58:23.101Z,100880.16
2018-05-02T08:00:51.434Z,100887.78
2018-05-02T08:03:19.786Z,100884.14
2018-05-02T08:05:48.109Z,100893.68
2018-05-02T08:08:16.457Z,100898.43
2018-05-02T08:10:44.781Z,100900.87
2018-05-02T08:13:14.738Z,100906.33
2018-05-02T08:15:43.064Z,100900.48
2018-05-02T08:18:11.417Z,100894.55
2018-05-02T08:20:39.748Z,100904.16
2018-05-02T08:23:08.100Z,100900.98
2018-05-02T08:25:36.437Z,100898.00
2018-05-02T08:28:04.797Z,100897.91
2018-05-02T08:30:33.125Z,100895.27
2018-05-02T08:33:02.504Z,100902.55
2018-05-02T08:35:30.832Z,100904.80
2018-05-02T08:37:59.176Z,100895.80
2018-05-02T08:40:27.504Z,100895.83
2018-05-02T08:42:55.857Z,100895.20
2018-05-02T08:45:24.176Z,100894.35
2018-05-02T08:47:53.257Z,100901.74
2018-05-02T08:50:21.584Z,100892.17
2018-05-02T08:52:50.148Z,100887.86
2018-05-02T08:55:18.468Z,100876.32
2018-05-02T08:57:46.819Z,100879.87
2018-05-02T09:00:15.153Z,100874.45
2018-05-02T09:02:43.500Z,100877.78
2018-05-02T09:05:11.828Z,100873.83
2018-05-02T09:07:40.176Z,100865.69
2018-05-02T09:10:08.499Z,100861.34
2018-05-02T09:12:36.847Z,100854.91
2018-05-02T09:15:05.175Z,100853.23
2018-05-02T09:17:33.522Z,100851.98
2018-05-02T09:20:01.853Z,100840.55
2018-05-02T09:22:30.200Z,100839.94
2018-05-02T09:24:58.524Z,100830.61
2018-05-02T09:27:26.876Z,100828.92
2018-05-02T09:29:55.195Z,100817.42
2018-05-02T09:32:24.343Z,100810.42
2018-05-02T09:34:52.674Z,100813.21
2018-05-02T09:37:21.020Z,100808.34
2018-05-02T09:39:49.348Z,100817.48
2018-05-02T09:42:17.701Z,100812.31
2018-05-02T09:44:46.065Z,100814.47
2018-05-02T09:47:14.392Z,100810.00
2018-05-02T09:49:42.740Z,100804.09
2018-05-02T09:52:12.202Z,100794.16
2018-05-02T09:54:40.552Z,100797.83
2018-05-02T09:57:08.880Z,100792.91
2018-05-02T09:59:37.224Z,100800.61
2018-05-02T10:02:05.561Z,100803.06
2018-05-02T10:04:33.981Z,100791.94
2018-05-02T10:07:02.246Z,100792.22
2018-05-02T10:09:30.596Z,100784.47
2018-05-02T10:11:59.591Z,100779.50
2018-05-02T10:14:27.932Z,100785.06
2018-05-02T10:16:56.264Z,100785.19
2018-05-02T10:19:24.612Z,100780.33
2018-05-02T10:21:52.943Z,100781.45
2018-05-02T10:24:21.296Z,100779.09
2018-05-02T10:26:49.624Z,100782.37
2018-05-02T10:29:17.969Z,100780.88
2018-05-02T10:31:47.472Z,100782.64
2018-05-02T10:34:15.820Z,100767.31
2018-05-02T10:36:44.148Z,100765.86
2018-05-02T10:39:12.500Z,100768.25
2018-05-02T10:41:40.831Z,100770.58
2018-05-02T10:44:09.185Z,100766.42
2018-05-02T10:46:37.508Z,100756.41
2018-05-02T10:49:05.856Z,100753.88
2018-05-02T10:51:35.213Z,100754.92
2018-05-02T10:54:03.563Z,100761.41
2018-05-02T10:56:31.888Z,100756.06
2018-05-02T10:59:00.236Z,100757.08
2018-05-02T11:01:28.564Z,100759.72
2018-05-02T11:03:56.920Z,100759.63
2018-05-02T11:06:25.260Z,100753.73
2018-05-02T11:08:53.613Z,100750.70
2018-05-02T11:11:21.940Z,100750.66
2018-05-02T11:13:50.288Z,100754.09
2018-05-02T11:16:18.621Z,100749.88
2018-05-02T11:18:46.973Z,100751.53
2018-05-02T11:21:15.304Z,100747.74
2018-05-02T11:23:43.644Z,100742.65
2018-05-02T11:26:11.975Z,100743.88
2018-05-02T11:28:40.328Z,100738.83
2018-05-02T11:31:09.637Z,100735.95
2018-05-02T11:33:37.988Z,100734.84
2018-05-02T11:36:06.325Z,100724.43
2018-05-02T11:38:34.672Z,100722.02
2018-05-02T11:41:03.005Z,100720.83
2018-05-02T11:43:31.360Z,100716.88
2018-05-02T11:45:59.773Z,100719.80
2018-05-02T11:48:28.092Z,100714.72
2018-05-02T11:50:56.573Z,100702.12
2018-05-02T11:53:24.896Z,100702.16
2018-05-02T11:55:53.252Z,100704.10
2018-05-02T11:58:21.581Z,100703.39
2018-05-02T12:00:49.932Z,100703.74
2018-05-02T12:03:18.256Z,100697.91
2018-05-02T12:05:46.607Z,100702.61
2018-05-02T12:08:14.941Z,100698.30
2018-05-02T12:10:44.892Z,100696.60
2018-05-02T12:13:13.216Z,100698.76
2018-05-02T12:15:41.568Z,100695.86
2018-05-02T12:18:09.956Z,100694.75
2018-05-02T12:20:38.292Z,100693.78
2018-05-02T12:23:06.625Z,100690.91
2018-05-02T12:25:35.052Z,100688.63
2018-05-02T12:28:03.416Z,100685.62
2018-05-02T12:30:32.772Z,100677.51
2018-05-02T12:33:01.110Z,100678.98
2018-05-02T12:35:29.487Z,100666.80
2018-05-02T12:37:57.780Z,100675.79
2018-05-02T12:40:26.187Z,100674.70
2018-05-02T12:42:54.548Z,100670.63
2018-05-02T12:45:23.035Z,100661.20
2018-05-02T12:47:51.428Z,100665.24
2018-05-02T12:50:20.168Z,100666.66
2018-05-02T12:52:48.493Z,100658.40
2018-05-02T12:55:16.845Z,100665.14
2018-05-02T12:57:45.175Z,100649.34
2018-05-02T13:00:13.523Z,100644.74
2018-05-02T13:02:42.828Z,100655.50
2018-05-02T13:05:11.195Z,100648.10
2018-05-02T13:07:39.512Z,100639.20
2018-05-02T13:10:08.061Z,100643.35
2018-05-02T13:12:36.384Z,100631.94
2018-05-02T13:15:04.740Z,100635.66
2018-05-02T13:17:33.077Z,100628.25
2018-05-02T13:20:01.426Z,100631.34
2018-05-02T13:22:29.748Z,100629.81
2018-05-02T13:24:58.096Z,100620.64
2018-05-02T13:27:26.419Z,100614.99
2018-05-02T13:29:55.641Z,100617.07
2018-05-02T13:32:23.964Z,100609.28
2018-05-02T13:34:52.312Z,100609.17
2018-05-02T13:37:20.651Z,100614.16
2018-05-02T13:39:48.992Z,100604.80
2018-05-02T13:42:17.316Z,100597.70
2018-05-02T13:44:45.681Z,100589.76
2018-05-02T13:47:14.013Z,100586.18
2018-05-02T13:49:42.513Z,100586.13
2018-05-02T13:52:10.844Z,100580.61
2018-05-02T13:54:39.169Z,100572.59
2018-05-02T13:57:07.521Z,100573.84
2018-05-02T13:59:58.288Z,100563.08
2018-05-02T14:02:26.613Z,100563.20
2018-05-02T14:04:55.630Z,100562.23
2018-05-02T14:07:23.985Z,100565.05
2018-05-02T14:09:52.321Z,100561.84
2018-05-02T14:12:20.673Z,100562.75
2018-05-02T14:14:49.011Z,100559.19
2018-05-02T14:17:17.357Z,100554.48
2018-05-02T14:19:45.684Z,100554.57
2018-05-02T14:22:14.032Z,100552.23
2018-05-02T14:24:43.474Z,100545.58
2018-05-02T14:27:11.834Z,100535.45
2018-05-02T14:29:40.169Z,100533.92
2018-05-02T14:32:08.525Z,100536.94
2018-05-02T14:34:36.857Z,100536.33
2018-05-02T14:37:05.216Z,100542.37
2018-05-02T14:39:33.548Z,100537.73
2018-05-02T14:42:01.904Z,100538.32
2018-05-02T14:44:30.248Z,100534.64
2018-05-02T14:46:58.601Z,100532.53
2018-05-02T14:49:26.928Z,100533.34
2018-05-02T14:51:55.403Z,100523.35
2018-05-02T14:54:23.737Z,100533.99
2018-05-02T14:56:52.149Z,100530.89
2018-05-02T14:59:20.618Z,100522.75
2018-05-02T15:01:50.530Z,100526.08
2018-05-02T15:04:18.869Z,100525.34
2018-05-02T15:06:47.222Z,100521.71
2018-05-02T15:09:15.553Z,100517.16
2018-05-02T15:11:43.896Z,100518.30
2018-05-02T15:14:12.229Z,100519.27
2018-05-02T15:16:40.577Z,100514.15
2018-05-02T15:19:09.683Z,100518.51
2018-05-02T15:21:39.200Z,100509.17
2018-05-02T15:24:07.556Z,100516.03
2018-05-02T15:26:35.904Z,100515.11
2018-05-02T15:29:04.236Z,100515.37
2018-05-02T15:31:32.641Z,100509.64
2018-05-02T15:34:00.972Z,100500.27
2018-05-02T15:36:29.333Z,100506.01
2018-05-02T15:38:57.665Z,100510.78
2018-05-02T15:41:26.016Z,100510.29
2018-05-02T15:43:55.228Z,100507.38
2018-05-02T15:46:23.590Z,100505.85
2018-05-02T15:48:51.916Z,100503.75
2018-05-02T15:51:20.273Z,100507.34
2018-05-02T15:53:48.596Z,100501.15
2018-05-02T15:56:16.949Z,100503.56
2018-05-02T15:58:45.302Z,100498.50
2018-05-02T16:01:14.286Z,100493.16
2018-05-02T16:03:42.616Z,100499.73
2018-05-02T16:06:10.973Z,100496.52
2018-05-02T16:08:39.300Z,100497.97
2018-05-02T16:11:07.649Z,100495.27
2018-05-02T16:13:35.990Z,100493.54
2018-05-02T16:16:04.309Z,100488.15
2018-05-02T16:18:32.656Z,100492.43
2018-05-02T16:21:01.075Z,100490.44
2018-05-02T16:23:29.420Z,100493.88
2018-05-02T16:25:57.745Z,100493.80
2018-05-02T16:28:26.097Z,100497.73
2018-05-02T16:30:54.433Z,100491.84
2018-05-02T16:33:22.864Z,100491.94
2018-05-02T16:35:51.125Z,100490.57
2018-05-02T16:38:19.495Z,100497.10
2018-05-02T16:40:48.924Z,100494.92
2018-05-02T16:43:17.278Z,100490.50
2018-05-02T16:45:45.668Z,100489.23
2018-05-02T16:48:14.036Z,100486.18
2018-05-02T16:50:42.365Z,100489.73
2018-05-02T16:53:10.718Z,100483.46
2018-05-02T16:55:39.049Z,100481.61
2018-05-02T16:58:07.400Z,100484.37
2018-05-02T17:00:35.734Z,100491.19
2018-05-02T17:03:04.093Z,100485.64
2018-05-02T17:05:32.426Z,100485.08
2018-05-02T17:08:00.810Z,100484.13
2018-05-02T17:10:29.128Z,100488.42
2018-05-02T17:12:57.483Z,100490.53
2018-05-02T17:15:25.813Z,100486.75
2018-05-02T17:17:54.164Z,100481.94
2018-05-02T17:20:23.377Z,100468.83
2018-05-02T17:22:51.729Z,100478.80
2018-05-02T17:25:20.084Z,100475.97
2018-05-02T17:27:48.428Z,100475.77
2018-05-02T17:30:16.756Z,100476.92
2018-05-02T17:32:45.112Z,100481.05
2018-05-02T17:35:13.441Z,100476.00
2018-05-02T17:37:41.794Z,100481.83
2018-05-02T17:40:11.729Z,100477.23
2018-05-02T17:42:40.076Z,100482.59
2018-05-02T17:45:08.405Z,100490.69
2018-05-02T17:47:36.763Z,100487.91
2018-05-02T17:50:05.085Z,100485.77
2018-05-02T17:52:33.436Z,100484.46
2018-05-02T17:55:01.769Z,100482.42
2018-05-02T17:57:30.116Z,100488.83
2018-05-02T17:59:59.436Z,100496.98
2018-05-02T18:02:27.790Z,100494.64
2018-05-02T18:04:56.116Z,100490.14
2018-05-02T18:07:24.476Z,100489.11
2018-05-02T18:09:52.801Z,100487.72
2018-05-02T18:12:21.144Z,100488.20
2018-05-02T18:14:49.481Z,100490.64
2018-05-02T18:17:17.832Z,100494.57
2018-05-02T18:19:46.350Z,100494.19
2018-05-02T18:22:14.687Z,100492.77
2018-05-02T18:24:43.028Z,100492.88
2018-05-02T18:27:11.361Z,100489.41
2018-05-02T18:29:39.708Z,100489.25
2018-05-02T18:32:08.040Z,100493.97
2018-05-02T18:34:36.389Z,100492.67
2018-05-02T18:37:04.725Z,100486.78
2018-05-02T18:39:34.949Z,100485.10
2018-05-02T18:42:03.284Z,100490.86
2018-05-02T18:44:31.630Z,100493.12
2018-05-02T18:47:00.020Z,100491.96
2018-05-02T18:49:28.396Z,100493.00
2018-05-02T18:51:56.713Z,100490.59
2018-05-02T18:54:25.059Z,100499.56
2018-05-02T18:56:53.388Z,100497.13
2018-05-02T18:59:22.709Z,100491.27
2018-05-02T19:01:51.031Z,100500.69
2018-05-02T19:04:19.388Z,100501.36
2018-05-02T19:06:47.719Z,100496.40
2018-05-02T19:09:16.074Z,100493.38
2018-05-02T19:11:44.396Z,100495.49
2018-05-02T19:14:12.753Z,100501.87
2018-05-02T19:16:41.084Z,100498.91
2018-05-02T19:19:16.095Z,100500.98
2018-05-02T19:21:44.413Z,100503.21
2018-05-02T19:24:13.711Z,100497.34
2018-05-02T19:26:42.050Z,100509.38
2018-05-02T19:29:10.392Z,100515.75
2018-05-02T19:31:44.292Z,100523.70
2018-05-02T19:34:12.632Z,100523.47
2018-05-02T19:36:40.969Z,100526.08
2018-05-02T19:39:09.316Z,100536.03
2018-05-02T19:41:43.181Z,100536.02
2018-05-02T19:44:11.599Z,100533.28
2018-05-02T19:46:39.857Z,100533.44
2018-05-02T19:49:08.216Z,100531.44
2018-05-02T19:51:43.028Z,100531.63
2018-05-02T19:54:11.398Z,100526.25
2018-05-02T19:56:39.716Z,100527.25
2018-05-02T19:59:08.059Z,100532.28
2018-05-02T20:01:42.112Z,100527.39
2018-05-02T20:04:10.467Z,100527.02
2018-05-02T20:06:38.789Z,100526.70
2018-05-02T20:12:18.834Z,100523.20
2018-05-02T20:14:47.176Z,100522.94
2018-05-02T20:17:15.508Z,100524.05
2018-05-02T20:19:43.852Z,100522.12
2018-05-02T20:22:12.185Z,100520.73
2018-05-02T20:24:40.544Z,100522.02
2018-05-02T20:30:18.657Z,100520.75
2018-05-02T20:32:46.968Z,100524.84
2018-05-02T20:35:15.308Z,100522.76
2018-05-02T20:37:44.124Z,100518.37
2018-05-02T20:40:12.469Z,100524.78
2018-05-02T20:42:40.785Z,100524.57
2018-05-02T20:45:09.124Z,100522.31
2018-05-02T20:47:37.526Z,100525.17
2018-05-02T20:50:05.788Z,100522.86
2018-05-02T20:52:34.111Z,100522.00
2018-05-02T20:55:02.565Z,100514.47
2018-05-02T20:57:30.766Z,100514.67
2018-05-02T20:59:59.105Z,100516.71
2018-05-02T21:02:27.436Z,100513.56
2018-05-02T21:04:55.768Z,100514.09
2018-05-02T21:07:24.109Z,100517.95
2018-05-02T21:09:52.452Z,100517.03
2018-05-02T21:12:20.784Z,100515.72
2018-05-02T21:14:49.141Z,100518.97
2018-05-02T21:17:17.472Z,100509.00
2018-05-02T21:19:45.828Z,100517.66
2018-05-02T21:22:14.168Z,100514.38
2018-05-02T21:24:44.232Z,100511.14
2018-05-02T21:27:12.565Z,100517.84
2018-05-02T21:29:40.917Z,100519.67
2018-05-02T21:32:09.253Z,100517.09
2018-05-02T21:34:37.599Z,100517.94
2018-05-02T21:37:05.932Z,100517.47
2018-05-02T21:39:34.289Z,100517.98
2018-05-02T21:42:02.626Z,100522.27
2018-05-02T21:44:31.864Z,100517.51
2018-05-02T21:47:00.184Z,100523.89
2018-05-02T21:49:28.528Z,100525.10
2018-05-02T21:51:56.852Z,100522.44
2018-05-02T21:54:25.208Z,100519.70
2018-05-02T21:56:53.536Z,100527.76
2018-05-02T21:59:21.861Z,100525.53
2018-05-02T22:01:50.204Z,100529.32
2018-05-02T22:04:18.511Z,100529.73
2018-05-02T22:06:46.853Z,100531.25
2018-05-02T22:09:15.173Z,100532.45
2018-05-02T22:11:43.512Z,100530.12
2018-05-02T22:14:11.842Z,100529.44
2018-05-02T22:16:40.173Z,100530.12
2018-05-02T22:19:08.488Z,100529.24
2018-05-02T22:21:36.828Z,100533.96
2018-05-02T22:24:05.140Z,100533.19
2018-05-02T22:26:33.480Z,100532.87
2018-05-02T22:29:01.805Z,100527.73
2018-05-02T22:31:30.136Z,100528.35
2018-05-02T22:33:58.453Z,100527.30
2018-05-02T22:36:26.806Z,100530.11
2018-05-02T22:38:55.116Z,100537.67
2018-05-02T22:41:23.456Z,100545.11
2018-05-02T22:43:51.780Z,100548.78
2018-05-02T22:46:20.131Z,100551.82
2018-05-02T22:48:48.452Z,100550.83
2018-05-02T22:51:16.783Z,100547.22
2018-05-02T22:53:45.145Z,100547.77
2018-05-02T22:56:13.480Z,100544.67
2018-05-02T22:58:41.800Z,100540.26
2018-05-02T23:01:10.128Z,100545.32
2018-05-02T23:03:38.448Z,100537.92
2018-05-02T23:06:06.784Z,100536.11
2018-05-02T23:08:35.113Z,100532.77
2018-05-02T23:11:03.452Z,100532.33
2018-05-02T23:13:31.771Z,100538.59
2018-05-02T23:16:00.112Z,100532.58
2018-05-02T23:18:28.431Z,100535.17
2018-05-02T23:20:56.764Z,100527.52
2018-05-02T23:23:25.088Z,100527.06
2018-05-02T23:25:53.440Z,100526.05
2018-05-02T23:28:21.765Z,100527.80
2018-05-02T23:30:50.116Z,100521.87
2018-05-02T23:33:18.452Z,100521.64
2018-05-02T23:35:46.805Z,100514.33
2018-05-02T23:38:15.124Z,100506.45
2018-05-02T23:40:43.460Z,100503.32
2018-05-02T23:43:11.789Z,100494.98
2018-05-02T23:45:40.124Z,100494.42
2018-05-02T23:48:08.452Z,100491.75
2018-05-02T23:50:36.800Z,100492.53
2018-05-02T23:53:05.117Z,100499.25
2018-05-02T23:55:33.456Z,100493.98
2018-05-02T23:58:01.776Z,100494.31
